Time;durP1;ratioP1;P1;durP2;ratioP2;P2;SDS_P1;SDS_P2;PMS_P1;PMS_P2;Temp;Humidity;BMP_temperature;BMP_pressure;BME280_temperature;BME280_humidity;BME280_pressure;Samples;Min_cycle;Max_cycle;Signal;HPM_P1;HPM_P2
2022/04/29 00:00:59;;;;;;;16.80;7.72;;;;;;;;;;4958645;28;20492;-83
2022/04/29 00:03:25;;;;;;;14.90;7.63;;;;;;;;;;4958845;28;20541;-84
2022/04/29 00:05:53;;;;;;;13.98;7.40;;;;;;;;;;4976209;28;20023;-83
2022/04/29 00:08:19;;;;;;;11.63;6.30;;;;;;;;;;4963391;28;20467;-84
2022/04/29 00:10:46;;;;;;;13.45;6.75;;;;;;;;;;4958406;28;20027;-85
2022/04/29 00:13:14;;;;;;;13.27;6.55;;;;;;;;;;4958418;28;20031;-83
2022/04/29 00:15:41;;;;;;;13.55;7.13;;;;;;;;;;4957031;28;20023;-82
2022/04/29 00:18:07;;;;;;;11.80;5.85;;;;;;;;;;4958091;28;20038;-84
2022/04/29 00:20:33;;;;;;;11.35;5.47;;;;;;;;;;4975479;28;20027;-84
2022/04/29 00:23:00;;;;;;;9.45;4.93;;;;;;;;;;4958255;28;20034;-84
2022/04/29 00:25:27;;;;;;;7.32;4.47;;;;;;;;;;4958182;28;20396;-84
2022/04/29 00:27:53;;;;;;;8.32;4.55;;;;;;;;;;4975271;28;20023;-84
2022/04/29 00:30:20;;;;;;;7.00;3.45;;;;;;;;;;4957881;28;20054;-83
2022/04/29 00:32:46;;;;;;;5.45;3.53;;;;;;;;;;4958202;28;20117;-84
2022/04/29 00:35:12;;;;;;;6.57;3.53;;;;;;;;;;4958093;28;20051;-84
2022/04/29 00:37:51;;;;;;;6.55;3.55;;;;;;;;;;4958080;28;20036;-83
2022/04/29 00:40:19;;;;;;;6.22;3.53;;;;;;;;;;4975317;28;20097;-83
2022/04/29 00:42:45;;;;;;;6.10;3.47;;;;;;;;;;4958030;28;20027;-84
2022/04/29 00:45:14;;;;;;;7.57;3.67;;;;;;;;;;4975441;28;20030;-84
2022/04/29 00:47:40;;;;;;;6.95;4.20;;;;;;;;;;4957925;28;20085;-84
2022/04/29 00:50:07;;;;;;;7.80;3.95;;;;;;;;;;4957908;28;20055;-84
2022/04/29 00:52:35;;;;;;;7.28;4.00;;;;;;;;;;4976434;28;20027;-84
2022/04/29 00:55:05;;;;;;;8.90;4.72;;;;;;;;;;4958259;28;20058;-84
2022/04/29 00:57:50;;;;;;;11.60;4.72;;;;;;;;;;4974117;28;20031;-84
2022/04/29 01:00:18;;;;;;;9.00;4.20;;;;;;;;;;4957720;28;20042;-84
2022/04/29 01:02:51;;;;;;;5.95;3.88;;;;;;;;;;4957692;28;20091;-84
2022/04/29 01:05:18;;;;;;;6.45;3.70;;;;;;;;;;4957615;28;20027;-84
2022/04/29 01:07:45;;;;;;;7.88;4.22;;;;;;;;;;4957890;28;20066;-84
2022/04/29 01:10:13;;;;;;;6.78;4.10;;;;;;;;;;4957843;28;20026;-85
2022/04/29 01:12:43;;;;;;;6.50;3.90;;;;;;;;;;4957798;28;20065;-84
2022/04/29 01:15:09;;;;;;;6.93;3.95;;;;;;;;;;4957560;28;20546;-84
2022/04/29 01:17:36;;;;;;;6.63;4.07;;;;;;;;;;4957714;28;20069;-82
2022/04/29 01:20:06;;;;;;;7.47;3.90;;;;;;;;;;4974786;28;20038;-83
2022/04/29 01:22:32;;;;;;;8.90;3.85;;;;;;;;;;4957650;28;20508;-84
2022/04/29 01:24:59;;;;;;;7.45;3.78;;;;;;;;;;4957729;28;20027;-84
2022/04/29 01:27:25;;;;;;;7.35;4.28;;;;;;;;;;4976606;28;20027;-83
2022/04/29 01:30:06;;;;;;;8.32;4.18;;;;;;;;;;4957781;28;20063;-84
2022/04/29 01:32:33;;;;;;;8.27;3.83;;;;;;;;;;4974358;28;20027;-83
2022/04/29 01:34:59;;;;;;;6.40;4.25;;;;;;;;;;4974794;28;20027;-84
2022/04/29 01:37:26;;;;;;;7.57;4.05;;;;;;;;;;4974416;28;20042;-84
2022/04/29 01:39:52;;;;;;;8.52;4.30;;;;;;;;;;4974173;28;20471;-83
2022/04/29 01:42:18;;;;;;;10.43;4.20;;;;;;;;;;4974339;28;20023;-84
2022/04/29 01:44:47;;;;;;;6.00;3.58;;;;;;;;;;4973954;28;20065;-84
2022/04/29 01:47:14;;;;;;;6.88;4.07;;;;;;;;;;4959009;29;20059;-84
2022/04/29 01:49:40;;;;;;;5.78;3.53;;;;;;;;;;4973857;28;20053;-84
2022/04/29 01:52:08;;;;;;;6.80;3.67;;;;;;;;;;4973724;28;20066;-83
2022/04/29 01:54:35;;;;;;;8.20;4.32;;;;;;;;;;4959047;28;20033;-84
2022/04/29 01:57:01;;;;;;;7.70;4.30;;;;;;;;;;4973461;28;20023;-83
2022/04/29 01:59:29;;;;;;;7.07;3.70;;;;;;;;;;4958524;29;20506;-84
2022/04/29 02:01:55;;;;;;;7.05;4.32;;;;;;;;;;4973642;28;20151;-84
2022/04/29 02:04:21;;;;;;;13.73;4.53;;;;;;;;;;4973752;28;20492;-84
2022/04/29 02:06:47;;;;;;;6.75;3.88;;;;;;;;;;4973604;28;20027;-84
2022/04/29 02:09:13;;;;;;;10.38;4.30;;;;;;;;;;4974796;28;20023;-83
2022/04/29 02:11:39;;;;;;;9.40;3.97;;;;;;;;;;4973765;28;20117;-84
2022/04/29 02:14:06;;;;;;;7.78;3.90;;;;;;;;;;4973621;28;20031;-83
2022/04/29 02:16:32;;;;;;;5.13;3.45;;;;;;;;;;4973452;28;20473;-84
2022/04/29 02:18:58;;;;;;;10.10;4.13;;;;;;;;;;4973359;28;20082;-84
2022/04/29 02:21:24;;;;;;;8.52;4.47;;;;;;;;;;4973306;28;20096;-84
2022/04/29 02:23:51;;;;;;;7.65;4.20;;;;;;;;;;4978825;28;20043;-83
2022/04/29 02:26:17;;;;;;;7.88;4.63;;;;;;;;;;4973429;28;20085;-83
2022/04/29 02:28:43;;;;;;;6.07;4.10;;;;;;;;;;4973273;28;20483;-84
2022/04/29 02:31:09;;;;;;;8.88;4.50;;;;;;;;;;4972899;28;20515;-84
2022/04/29 02:33:36;;;;;;;7.30;4.43;;;;;;;;;;4958265;29;20428;-83
2022/04/29 02:36:04;;;;;;;9.52;4.68;;;;;;;;;;4973106;28;20038;-84
2022/04/29 02:38:30;;;;;;;7.43;4.47;;;;;;;;;;4957211;28;20058;-84
2022/04/29 02:40:56;;;;;;;10.25;4.40;;;;;;;;;;4972804;28;20027;-84
2022/04/29 02:43:23;;;;;;;8.63;4.22;;;;;;;;;;4958273;29;20028;-84
2022/04/29 02:45:51;;;;;;;9.68;4.97;;;;;;;;;;4973000;28;20031;-84
2022/04/29 02:48:18;;;;;;;11.38;5.35;;;;;;;;;;4973001;28;20062;-83
2022/04/29 02:50:44;;;;;;;10.02;5.75;;;;;;;;;;4972749;28;20028;-84
2022/04/29 02:53:11;;;;;;;10.98;5.72;;;;;;;;;;4972889;28;20037;-84
2022/04/29 02:55:37;;;;;;;10.13;5.65;;;;;;;;;;4973018;28;20027;-84
2022/04/29 02:58:03;;;;;;;14.00;6.00;;;;;;;;;;4957685;29;20506;-84
2022/04/29 03:00:29;;;;;;;10.57;6.00;;;;;;;;;;4972449;28;20122;-84
2022/04/29 03:02:55;;;;;;;13.63;6.28;;;;;;;;;;4972666;28;20511;-84
2022/04/29 03:05:22;;;;;;;11.35;6.45;;;;;;;;;;4957703;29;20031;-84
2022/04/29 03:07:48;;;;;;;9.80;6.15;;;;;;;;;;4973412;28;20032;-84
2022/04/29 03:10:14;;;;;;;11.15;6.00;;;;;;;;;;4975610;28;20066;-83
2022/04/29 03:12:40;;;;;;;10.15;6.18;;;;;;;;;;4972476;28;20140;-84
2022/04/29 03:15:16;;;;;;;11.68;6.55;;;;;;;;;;4972546;28;20034;-84
2022/04/29 03:20:35;;;;;;;10.38;5.63;;;;;;;;;;4957536;29;20094;-82
2022/04/29 03:23:01;;;;;;;11.52;6.28;;;;;;;;;;4957347;28;20027;-83
2022/04/29 03:25:27;;;;;;;12.18;6.40;;;;;;;;;;4957153;29;20472;-83
2022/04/29 03:27:53;;;;;;;12.35;6.28;;;;;;;;;;4972303;28;20019;-83
2022/04/29 03:30:20;;;;;;;13.05;6.00;;;;;;;;;;4971938;28;20047;-84
2022/04/29 03:32:56;;;;;;;11.13;5.88;;;;;;;;;;4971984;28;20027;-83
2022/04/29 03:35:22;;;;;;;8.23;5.55;;;;;;;;;;4972090;28;20480;-82
2022/04/29 03:37:51;;;;;;;11.18;6.53;;;;;;;;;;4971861;28;20032;-83
2022/04/29 03:40:20;;;;;;;10.88;5.38;;;;;;;;;;4971932;28;20130;-84
2022/04/29 03:42:47;;;;;;;13.73;5.90;;;;;;;;;;4971920;28;20089;-84
2022/04/29 03:45:13;;;;;;;13.73;5.70;;;;;;;;;;4972208;28;20038;-85
2022/04/29 03:47:40;;;;;;;10.60;5.55;;;;;;;;;;4976749;28;20035;-83
2022/04/29 03:50:06;;;;;;;11.85;6.18;;;;;;;;;;4971829;28;20098;-84
2022/04/29 03:52:32;;;;;;;15.90;6.25;;;;;;;;;;4971711;28;20033;-84
2022/04/29 03:54:59;;;;;;;10.20;5.70;;;;;;;;;;4956783;29;20037;-83
2022/04/29 03:57:25;;;;;;;9.80;5.15;;;;;;;;;;4971568;28;20514;-83
2022/04/29 03:59:51;;;;;;;10.75;5.68;;;;;;;;;;4956687;29;20039;-83
2022/04/29 04:02:17;;;;;;;12.00;5.93;;;;;;;;;;4971685;28;20064;-84
2022/04/29 04:04:44;;;;;;;13.60;5.30;;;;;;;;;;4971615;28;20023;-84
2022/04/29 04:07:11;;;;;;;14.20;6.38;;;;;;;;;;4971536;28;20126;-84
2022/04/29 04:09:39;;;;;;;11.23;5.55;;;;;;;;;;4971325;28;20031;-83
2022/04/29 04:12:05;;;;;;;14.32;5.57;;;;;;;;;;4971444;28;20393;-83
2022/04/29 04:14:31;;;;;;;19.80;7.03;;;;;;;;;;4971204;28;20027;-84
2022/04/29 04:16:58;;;;;;;11.73;6.10;;;;;;;;;;4971430;28;20480;-84
2022/04/29 04:19:24;;;;;;;13.77;6.30;;;;;;;;;;4971368;28;20035;-84
2022/04/29 04:21:51;;;;;;;11.40;6.55;;;;;;;;;;4971294;28;20551;-84
2022/04/29 04:24:17;;;;;;;9.77;5.70;;;;;;;;;;4971081;28;20028;-83
2022/04/29 04:26:43;;;;;;;10.80;5.47;;;;;;;;;;4970857;28;20031;-82
2022/04/29 04:29:10;;;;;;;16.20;5.95;;;;;;;;;;4973066;28;20027;-82
2022/04/29 04:31:37;;;;;;;10.60;5.97;;;;;;;;;;4960085;29;20046;-83
2022/04/29 04:34:49;;;;;;;8.27;5.00;;;;;;;;;;4938547;29;20555;-82
2022/04/29 04:36:53;;;;;;;10.65;5.20;;;;;;;;;;4955182;29;20036;-81
2022/04/29 04:39:19;;;;;;;10.50;5.20;;;;;;;;;;4938206;29;20059;-81
2022/04/29 04:41:48;;;;;;;11.52;5.60;;;;;;;;;;4955701;29;20027;-82
2022/04/29 04:44:14;;;;;;;8.35;5.18;;;;;;;;;;4937697;29;20023;-81
2022/04/29 04:46:41;;;;;;;12.85;5.55;;;;;;;;;;4938502;29;20054;-81
2022/04/29 04:49:07;;;;;;;11.68;4.80;;;;;;;;;;4938278;29;20070;-79
2022/04/29 04:51:33;;;;;;;11.50;5.32;;;;;;;;;;4938533;29;20031;-81
2022/04/29 04:54:00;;;;;;;10.02;4.85;;;;;;;;;;4955388;29;20472;-80
2022/04/29 04:56:26;;;;;;;10.30;5.55;;;;;;;;;;4938134;29;20110;-82
2022/04/29 04:58:53;;;;;;;9.15;4.85;;;;;;;;;;4968280;28;20507;-86
2022/04/29 05:01:21;;;;;;;14.48;5.10;;;;;;;;;;4957176;28;20023;-84
2022/04/29 05:04:07;;;;;;;6.57;3.53;;;;;;;;;;4957995;28;20400;-84
2022/04/29 05:06:40;;;;;;;7.32;3.58;;;;;;;;;;4951954;28;20030;-85
2022/04/29 05:09:07;;;;;;;8.75;3.67;;;;;;;;;;4956482;28;20039;-85
2022/04/29 05:11:45;;;;;;;9.20;3.15;;;;;;;;;;4954364;29;20035;-82
2022/04/29 05:14:11;;;;;;;9.80;3.20;;;;;;;;;;4954836;29;20536;-85
2022/04/29 05:16:37;;;;;;;6.32;2.67;;;;;;;;;;4954587;29;20031;-87
2022/04/29 05:19:03;;;;;;;5.18;2.78;;;;;;;;;;4954252;29;20074;-84
2022/04/29 05:21:29;;;;;;;4.50;2.28;;;;;;;;;;4954387;29;20024;-86
2022/04/29 05:23:55;;;;;;;3.35;2.00;;;;;;;;;;4954605;29;20089;-86
2022/04/29 05:26:22;;;;;;;4.28;2.15;;;;;;;;;;4954790;29;20056;-87
2022/04/29 05:28:48;;;;;;;3.83;2.17;;;;;;;;;;4954556;29;20019;-88
2022/04/29 05:37:01;;;;;;;9.30;2.00;;;;;;;;;;5188921;23;20054;-85
2022/04/29 05:42:14;;;;;;;5.18;2.00;;;;;;;;;;4994279;28;20390;-83
2022/04/29 05:44:41;;;;;;;4.45;2.20;;;;;;;;;;4976795;28;20026;-85
2022/04/29 05:47:07;;;;;;;3.42;2.00;;;;;;;;;;4977474;28;20239;-85
2022/04/29 05:49:34;;;;;;;3.97;1.88;;;;;;;;;;4981301;28;20117;-84
2022/04/29 05:52:03;;;;;;;3.63;2.08;;;;;;;;;;4976886;28;20035;-87
2022/04/29 05:54:31;;;;;;;4.00;1.70;;;;;;;;;;4977166;28;20022;-86
2022/04/29 05:57:01;;;;;;;5.60;2.10;;;;;;;;;;4994215;28;20027;-87
2022/04/29 05:59:27;;;;;;;6.35;2.05;;;;;;;;;;4976781;28;20052;-86
2022/04/29 06:01:54;;;;;;;3.45;1.95;;;;;;;;;;4976772;28;20030;-88
2022/04/29 06:04:20;;;;;;;4.75;2.35;;;;;;;;;;4976972;28;20062;-87
2022/04/29 06:06:47;;;;;;;4.97;2.63;;;;;;;;;;4976740;28;20030;-86
2022/04/29 06:09:13;;;;;;;5.80;2.25;;;;;;;;;;4977049;28;20034;-85
2022/04/29 06:11:39;;;;;;;8.88;2.38;;;;;;;;;;4994079;28;20027;-86
2022/04/29 06:14:05;;;;;;;4.32;2.38;;;;;;;;;;4995238;28;20026;-87
2022/04/29 06:16:31;;;;;;;6.90;2.55;;;;;;;;;;4980499;28;20034;-85
2022/04/29 06:18:58;;;;;;;5.53;2.80;;;;;;;;;;4979983;28;20042;-84
2022/04/29 06:21:24;;;;;;;4.30;2.20;;;;;;;;;;4979932;28;20395;-89
2022/04/29 06:23:50;;;;;;;4.32;2.58;;;;;;;;;;4997410;28;20015;-82
2022/04/29 06:26:16;;;;;;;6.10;2.38;;;;;;;;;;4980194;28;20034;-89
2022/04/29 06:28:42;;;;;;;7.32;2.15;;;;;;;;;;4982739;28;20076;-88
2022/04/29 06:31:09;;;;;;;4.18;2.15;;;;;;;;;;4983170;28;20030;-87
2022/04/29 06:33:35;;;;;;;4.85;1.92;;;;;;;;;;4974180;28;20085;-86
2022/04/29 06:36:02;;;;;;;3.60;1.90;;;;;;;;;;4967316;28;20042;-85
2022/04/29 06:38:46;;;;;;;4.38;2.03;;;;;;;;;;4965075;28;20093;-83
2022/04/29 06:41:12;;;;;;;3.40;2.05;;;;;;;;;;4961201;28;20034;-83
2022/04/29 06:43:38;;;;;;;10.60;2.53;;;;;;;;;;4993307;28;20030;-85
2022/04/29 06:46:05;;;;;;;5.32;2.15;;;;;;;;;;4995127;28;20502;-86
2022/04/29 06:48:31;;;;;;;9.32;2.10;;;;;;;;;;4970384;28;20037;-86
2022/04/29 06:50:58;;;;;;;6.45;1.92;;;;;;;;;;4965942;28;20067;-84
2022/04/29 06:53:24;;;;;;;6.75;2.22;;;;;;;;;;4974567;28;20052;-87
2022/04/29 06:55:50;;;;;;;3.35;1.80;;;;;;;;;;4970600;28;20030;-86
2022/04/29 06:58:16;;;;;;;4.60;2.00;;;;;;;;;;4966302;28;20023;-85
2022/04/29 07:00:43;;;;;;;4.97;2.00;;;;;;;;;;4990595;28;20036;-88
2022/04/29 07:03:12;;;;;;;4.85;1.92;;;;;;;;;;4966996;28;20045;-85
2022/04/29 07:05:39;;;;;;;3.90;1.90;;;;;;;;;;4967571;28;20041;-85
2022/04/29 07:08:09;;;;;;;3.72;2.00;;;;;;;;;;4966886;28;20054;-84
2022/04/29 07:10:35;;;;;;;5.78;1.90;;;;;;;;;;4963973;28;20479;-86
2022/04/29 07:13:04;;;;;;;5.13;2.10;;;;;;;;;;4960722;28;20094;-87
2022/04/29 07:15:30;;;;;;;6.60;1.75;;;;;;;;;;4988667;28;20065;-85
2022/04/29 07:17:57;;;;;;;6.22;1.98;;;;;;;;;;4990448;28;20026;-85
2022/04/29 07:20:23;;;;;;;9.43;2.20;;;;;;;;;;4982294;28;20093;-85
2022/04/29 07:22:49;;;;;;;3.60;1.88;;;;;;;;;;4986608;28;20029;-86
2022/04/29 07:25:15;;;;;;;5.53;2.03;;;;;;;;;;4969285;28;20078;-85
2022/04/29 07:27:42;;;;;;;3.03;1.80;;;;;;;;;;4959372;28;20399;-87
2022/04/29 07:30:10;;;;;;;4.30;2.05;;;;;;;;;;4959281;28;20038;-88
2022/04/29 07:32:36;;;;;;;5.18;1.95;;;;;;;;;;4959414;28;20121;-85
2022/04/29 07:43:23;;;;;;;3.47;1.77;;;;;;;;;;4976878;28;20041;-89
2022/04/29 07:45:51;;;;;;;5.28;2.05;;;;;;;;;;4959441;28;20061;-87
2022/04/29 07:48:17;;;;;;;6.55;2.00;;;;;;;;;;4959325;28;20037;-90
2022/04/29 07:50:44;;;;;;;3.58;1.50;;;;;;;;;;4959005;28;20086;-89
2022/04/29 07:53:10;;;;;;;9.18;2.35;;;;;;;;;;4976393;28;20049;-83
2022/04/29 07:55:37;;;;;;;4.38;2.20;;;;;;;;;;4976287;28;20468;-88
2022/04/29 07:58:03;;;;;;;3.20;1.85;;;;;;;;;;4964028;28;20080;-87
2022/04/29 08:00:31;;;;;;;2.92;1.67;;;;;;;;;;4980802;28;20038;-81
2022/04/29 08:03:00;;;;;;;6.53;1.92;;;;;;;;;;4977354;28;20038;-84
2022/04/29 08:05:27;;;;;;;3.88;1.80;;;;;;;;;;4977796;28;20418;-83
2022/04/29 08:07:55;;;;;;;8.55;1.98;;;;;;;;;;4977414;28;20133;-83
2022/04/29 08:10:22;;;;;;;2.88;1.85;;;;;;;;;;4977410;28;20105;-84
2022/04/29 08:12:48;;;;;;;4.57;1.65;;;;;;;;;;4977196;28;20034;-84
2022/04/29 08:15:15;;;;;;;4.07;1.67;;;;;;;;;;4977209;28;20109;-83
2022/04/29 08:17:41;;;;;;;4.15;1.83;;;;;;;;;;4994550;28;20030;-83
2022/04/29 08:20:08;;;;;;;3.60;1.80;;;;;;;;;;4976629;28;20042;-81
2022/04/29 08:22:34;;;;;;;3.33;1.70;;;;;;;;;;4977105;28;20483;-82
2022/04/29 08:25:01;;;;;;;3.53;1.80;;;;;;;;;;4976719;28;20030;-82
2022/04/29 08:27:28;;;;;;;2.63;1.73;;;;;;;;;;4976956;28;20022;-82
2022/04/29 08:29:56;;;;;;;3.67;1.90;;;;;;;;;;4994366;28;20018;-82
2022/04/29 08:32:22;;;;;;;6.63;1.95;;;;;;;;;;4976848;28;20023;-82
2022/04/29 08:34:49;;;;;;;6.10;1.75;;;;;;;;;;4994265;28;20031;-82
2022/04/29 08:37:15;;;;;;;3.28;1.50;;;;;;;;;;4976257;28;20053;-82
2022/04/29 08:39:41;;;;;;;3.55;1.85;;;;;;;;;;4978559;28;20486;-81
2022/04/29 08:42:08;;;;;;;4.50;1.95;;;;;;;;;;4994213;28;20030;-82
2022/04/29 08:44:35;;;;;;;3.33;1.90;;;;;;;;;;4976757;28;20029;-82
2022/04/29 08:47:04;;;;;;;5.15;1.88;;;;;;;;;;4994218;28;20030;-81
2022/04/29 08:49:32;;;;;;;5.72;1.60;;;;;;;;;;4976634;28;20022;-82
2022/04/29 08:52:00;;;;;;;2.90;1.73;;;;;;;;;;4993973;28;20026;-83
2022/04/29 09:00:01;;;;;;;2.70;1.58;;;;;;;;;;4994276;28;20049;-82
2022/04/29 09:02:28;;;;;;;4.32;1.80;;;;;;;;;;4976222;28;20198;-82
2022/04/29 09:04:57;;;;;;;3.13;1.40;;;;;;;;;;4994024;28;20019;-81
2022/04/29 09:07:42;;;;;;;4.53;1.80;;;;;;;;;;4976630;28;20027;-82
2022/04/29 09:10:08;;;;;;;7.63;1.35;;;;;;;;;;4976523;28;20026;-83
2022/04/29 09:12:34;;;;;;;4.60;1.70;;;;;;;;;;4976234;28;20027;-84
2022/04/29 09:15:13;;;;;;;3.95;1.20;;;;;;;;;;4976513;28;20038;-82
2022/04/29 09:17:43;;;;;;;5.18;1.40;;;;;;;;;;4976412;28;20037;-83
2022/04/29 09:20:16;;;;;;;4.13;1.58;;;;;;;;;;4976302;28;20486;-84
2022/04/29 09:22:43;;;;;;;3.63;1.63;;;;;;;;;;4976333;28;20030;-83
2022/04/29 09:25:09;;;;;;;4.80;1.63;;;;;;;;;;4973385;28;20494;-80
2022/04/29 09:27:54;;;;;;;4.90;2.00;;;;;;;;;;4967581;28;20022;-80
2022/04/29 09:30:40;;;;;;;2.95;1.48;;;;;;;;;;4961361;28;20034;-80
2022/04/29 09:33:26;;;;;;;4.03;1.45;;;;;;;;;;4959116;28;20407;-80
2022/04/29 09:35:55;;;;;;;4.65;1.60;;;;;;;;;;4993289;28;20040;-80
2022/04/29 09:41:06;;;;;;;3.17;1.25;;;;;;;;;;4993814;28;20395;-80
2022/04/29 09:43:44;;;;;;;4.43;1.88;;;;;;;;;;4957849;28;20030;-81
2022/04/29 09:46:10;;;;;;;2.95;1.50;;;;;;;;;;4956728;28;20500;-80
2022/04/29 09:48:55;;;;;;;4.13;1.45;;;;;;;;;;4960258;28;20022;-82
2022/04/29 09:51:47;;;;;;;6.85;1.60;;;;;;;;;;4979207;28;20037;-83
2022/04/29 09:54:24;;;;;;;2.40;1.30;;;;;;;;;;4995223;28;20042;-83
2022/04/29 09:57:07;;;;;;;2.20;1.27;;;;;;;;;;4979695;28;20422;-83
2022/04/29 09:59:44;;;;;;;2.33;1.00;;;;;;;;;;4979505;28;20041;-83
2022/04/29 10:02:11;;;;;;;4.25;1.50;;;;;;;;;;4979389;28;20026;-83
2022/04/29 10:04:40;;;;;;;4.32;1.40;;;;;;;;;;4997276;28;20495;-83
2022/04/29 10:07:07;;;;;;;3.72;1.40;;;;;;;;;;4979631;28;20029;-82
2022/04/29 10:09:35;;;;;;;3.30;1.20;;;;;;;;;;4979353;28;20498;-82
2022/04/29 10:12:04;;;;;;;3.08;1.27;;;;;;;;;;4996918;28;20471;-82
2022/04/29 10:14:33;;;;;;;1.67;0.93;;;;;;;;;;4979376;28;20054;-83
2022/04/29 10:22:34;;;;;;;3.60;1.27;;;;;;;;;;4997054;28;20135;-83
2022/04/29 10:25:01;;;;;;;3.28;1.45;;;;;;;;;;4996624;28;20222;-82
2022/04/29 10:27:28;;;;;;;2.72;1.30;;;;;;;;;;4996705;28;20022;-83
2022/04/29 10:29:54;;;;;;;2.95;1.08;;;;;;;;;;4996313;28;20117;-83
2022/04/29 10:32:21;;;;;;;3.40;1.00;;;;;;;;;;4996526;28;20480;-83
2022/04/29 10:34:49;;;;;;;2.47;1.17;;;;;;;;;;4996435;28;20027;-83
2022/04/29 10:37:15;;;;;;;1.88;1.00;;;;;;;;;;4978541;28;20463;-82
2022/04/29 10:39:43;;;;;;;2.50;1.27;;;;;;;;;;4979016;28;20454;-81
2022/04/29 10:42:09;;;;;;;3.55;1.48;;;;;;;;;;4978879;28;20026;-83
2022/04/29 10:44:55;;;;;;;4.57;1.17;;;;;;;;;;4978850;28;20088;-82
2022/04/29 10:47:59;;;;;;;2.35;1.10;;;;;;;;;;4978674;28;20105;-82
2022/04/29 10:50:30;;;;;;;3.55;1.23;;;;;;;;;;4992077;28;20034;-83
2022/04/29 10:53:03;;;;;;;2.97;1.20;;;;;;;;;;4978465;28;20113;-81
2022/04/29 10:55:29;;;;;;;3.40;1.27;;;;;;;;;;4996428;28;20026;-81
2022/04/29 10:58:04;;;;;;;2.53;1.30;;;;;;;;;;4996149;28;20042;-82
2022/04/29 11:00:30;;;;;;;3.25;1.10;;;;;;;;;;4971312;28;20089;-81
2022/04/29 11:03:16;;;;;;;8.02;1.10;;;;;;;;;;4994974;28;20057;-82
2022/04/29 11:05:43;;;;;;;4.93;1.15;;;;;;;;;;4978213;28;20034;-80
2022/04/29 11:08:09;;;;;;;3.95;1.45;;;;;;;;;;4995902;28;20026;-82
2022/04/29 11:10:54;;;;;;;4.07;1.30;;;;;;;;;;4978099;28;20058;-82
2022/04/29 11:13:24;;;;;;;4.35;1.10;;;;;;;;;;4995805;28;20117;-82
2022/04/29 11:15:50;;;;;;;2.58;1.10;;;;;;;;;;4996052;28;20026;-83
2022/04/29 11:18:23;;;;;;;3.45;1.30;;;;;;;;;;4978348;28;20402;-83
2022/04/29 11:20:55;;;;;;;3.63;1.15;;;;;;;;;;4977998;28;20030;-82
2022/04/29 11:26:10;;;;;;;2.83;1.30;;;;;;;;;;4989051;28;20070;-81
2022/04/29 11:28:36;;;;;;;3.05;1.20;;;;;;;;;;4958833;28;20031;-82
2022/04/29 11:31:04;;;;;;;3.10;1.27;;;;;;;;;;4958732;28;20069;-82
2022/04/29 11:33:30;;;;;;;3.08;1.20;;;;;;;;;;4963579;28;20045;-80
2022/04/29 11:36:04;;;;;;;2.83;1.20;;;;;;;;;;4964513;28;20074;-82
2022/04/29 11:38:31;;;;;;;5.13;1.75;;;;;;;;;;4964282;28;20031;-82
2022/04/29 11:41:01;;;;;;;5.68;2.00;;;;;;;;;;4955516;29;20038;-78
2022/04/29 11:43:27;;;;;;;4.88;2.03;;;;;;;;;;4955596;29;20034;-84
2022/04/29 11:46:01;;;;;;;3.92;1.60;;;;;;;;;;4955149;29;20511;-82
2022/04/29 11:48:27;;;;;;;3.63;1.85;;;;;;;;;;4955039;29;20050;-80
2022/04/29 11:50:57;;;;;;;6.95;2.60;;;;;;;;;;4954684;29;20023;-80
2022/04/29 11:53:23;;;;;;;4.50;1.90;;;;;;;;;;4956145;29;20035;-79
2022/04/29 11:55:52;;;;;;;6.22;2.10;;;;;;;;;;4954774;29;20027;-81
2022/04/29 11:58:19;;;;;;;4.70;2.33;;;;;;;;;;4954981;29;20488;-79
2022/04/29 12:00:49;;;;;;;3.63;2.15;;;;;;;;;;4955125;29;20391;-79
2022/04/29 12:03:19;;;;;;;4.93;2.22;;;;;;;;;;4955055;29;20038;-81
2022/04/29 12:05:46;;;;;;;3.28;1.65;;;;;;;;;;4954818;29;20031;-81
2022/04/29 12:08:12;;;;;;;5.90;1.92;;;;;;;;;;4954735;29;20034;-80
2022/04/29 12:10:38;;;;;;;4.95;2.15;;;;;;;;;;4954414;28;20515;-80
2022/04/29 12:13:05;;;;;;;5.90;1.92;;;;;;;;;;4954738;29;20409;-79
2022/04/29 12:15:39;;;;;;;4.97;1.70;;;;;;;;;;4954782;29;20118;-81
2022/04/29 12:18:09;;;;;;;4.15;1.90;;;;;;;;;;4955018;29;20020;-82
2022/04/29 12:20:37;;;;;;;5.03;1.95;;;;;;;;;;4956027;29;20544;-81
2022/04/29 12:23:10;;;;;;;6.70;2.00;;;;;;;;;;4955932;29;20111;-81
2022/04/29 12:25:38;;;;;;;6.15;2.03;;;;;;;;;;4954668;29;20102;-81
2022/04/29 12:28:09;;;;;;;3.17;1.55;;;;;;;;;;4954434;29;20059;-83
2022/04/29 12:36:13;;;;;;;4.85;1.70;;;;;;;;;;4960399;28;20058;-81
2022/04/29 12:38:40;;;;;;;7.57;1.85;;;;;;;;;;4957590;28;20038;-81
2022/04/29 12:41:22;;;;;;;8.27;1.90;;;;;;;;;;4958359;28;20471;-83
2022/04/29 12:43:48;;;;;;;4.80;1.80;;;;;;;;;;4957639;28;20042;-81
2022/04/29 12:46:18;;;;;;;3.22;1.70;;;;;;;;;;4974533;28;20026;-81
2022/04/29 12:48:47;;;;;;;2.72;1.50;;;;;;;;;;4957452;28;20077;-81
2022/04/29 12:51:31;;;;;;;4.07;1.90;;;;;;;;;;4957368;28;20027;-81
2022/04/29 12:53:58;;;;;;;6.00;1.80;;;;;;;;;;4957325;28;20145;-80
2022/04/29 12:56:24;;;;;;;4.10;1.85;;;;;;;;;;4957343;28;20538;-81
2022/04/29 12:58:50;;;;;;;5.38;2.00;;;;;;;;;;4957187;28;20046;-80
2022/04/29 13:01:17;;;;;;;4.65;2.00;;;;;;;;;;4957222;28;20038;-81
2022/04/29 13:03:48;;;;;;;5.15;1.88;;;;;;;;;;4957196;28;20030;-80
2022/04/29 13:06:14;;;;;;;3.17;1.70;;;;;;;;;;4957303;28;20030;-80
2022/04/29 13:08:40;;;;;;;4.13;1.55;;;;;;;;;;4957022;28;20034;-80
2022/04/29 13:11:06;;;;;;;5.57;1.80;;;;;;;;;;4974522;28;20033;-78
2022/04/29 13:13:32;;;;;;;3.92;1.70;;;;;;;;;;4959348;28;20498;-79
2022/04/29 13:15:59;;;;;;;6.47;1.55;;;;;;;;;;4971811;28;20045;-79
2022/04/29 13:18:25;;;;;;;5.68;1.98;;;;;;;;;;4976289;28;20045;-80
2022/04/29 13:20:52;;;;;;;3.90;1.38;;;;;;;;;;4976286;28;20045;-80
2022/04/29 13:23:18;;;;;;;3.50;1.70;;;;;;;;;;4995492;28;20035;-80
2022/04/29 13:25:45;;;;;;;3.58;1.70;;;;;;;;;;4997778;28;20022;-80
2022/04/29 13:28:11;;;;;;;4.35;1.67;;;;;;;;;;4980081;28;20045;-80
2022/04/29 13:30:41;;;;;;;4.05;1.60;;;;;;;;;;4980279;28;20475;-80
2022/04/29 13:33:07;;;;;;;3.58;1.70;;;;;;;;;;4980090;28;20026;-81
2022/04/29 13:35:36;;;;;;;3.28;1.55;;;;;;;;;;4970717;28;20027;-78
2022/04/29 13:38:02;;;;;;;6.45;1.55;;;;;;;;;;4978451;28;20038;-79
2022/04/29 13:40:28;;;;;;;4.93;1.63;;;;;;;;;;4979717;28;20041;-79
2022/04/29 13:42:55;;;;;;;4.38;1.80;;;;;;;;;;4980100;28;20050;-80
2022/04/29 13:45:21;;;;;;;2.45;1.40;;;;;;;;;;4979953;28;20097;-81
2022/04/29 13:47:47;;;;;;;4.50;1.75;;;;;;;;;;4979989;28;20491;-81
2022/04/29 13:50:14;;;;;;;3.00;1.52;;;;;;;;;;4980161;28;20081;-81
2022/04/29 13:55:26;;;;;;;3.25;1.77;;;;;;;;;;4980352;28;20037;-80
2022/04/29 13:57:53;;;;;;;3.80;1.52;;;;;;;;;;4979627;28;20550;-79
2022/04/29 14:00:19;;;;;;;3.63;1.50;;;;;;;;;;4971833;28;20031;-80
2022/04/29 14:02:46;;;;;;;5.80;1.58;;;;;;;;;;4978153;28;20096;-80
2022/04/29 14:05:12;;;;;;;7.32;2.08;;;;;;;;;;4961439;28;20544;-76
2022/04/29 14:07:39;;;;;;;4.82;1.52;;;;;;;;;;4978096;28;20023;-75
2022/04/29 14:10:05;;;;;;;5.90;1.60;;;;;;;;;;4995145;28;20158;-80
2022/04/29 14:12:32;;;;;;;6.35;1.83;;;;;;;;;;4979390;28;20022;-80
2022/04/29 14:14:58;;;;;;;3.67;2.10;;;;;;;;;;4976596;28;20057;-80
2022/04/29 14:17:24;;;;;;;3.28;1.67;;;;;;;;;;4994636;28;20109;-79
2022/04/29 14:19:51;;;;;;;6.53;1.77;;;;;;;;;;4977821;28;20042;-79
2022/04/29 14:22:17;;;;;;;6.72;1.92;;;;;;;;;;4970436;28;20045;-78
2022/04/29 14:24:43;;;;;;;5.30;2.53;;;;;;;;;;4973212;28;20042;-78
2022/04/29 14:27:09;;;;;;;5.47;1.77;;;;;;;;;;4978148;28;20141;-80
2022/04/29 14:29:36;;;;;;;7.35;1.70;;;;;;;;;;4996136;28;20066;-80
2022/04/29 14:32:02;;;;;;;5.47;1.88;;;;;;;;;;4978848;28;20041;-79
2022/04/29 14:34:31;;;;;;;3.13;1.70;;;;;;;;;;4977902;28;20472;-79
2022/04/29 14:36:58;;;;;;;5.45;2.00;;;;;;;;;;4996036;28;20100;-80
2022/04/29 14:39:24;;;;;;;4.53;1.70;;;;;;;;;;4978632;28;20026;-79
2022/04/29 14:41:50;;;;;;;6.80;2.40;;;;;;;;;;4978910;28;20474;-80
2022/04/29 14:44:16;;;;;;;2.92;1.63;;;;;;;;;;4978842;28;20026;-79
2022/04/29 14:46:42;;;;;;;4.03;1.70;;;;;;;;;;4978796;28;20395;-80
2022/04/29 14:49:09;;;;;;;4.57;2.10;;;;;;;;;;4978796;28;20502;-79
2022/04/29 14:51:36;;;;;;;5.25;2.00;;;;;;;;;;4978718;28;20034;-79
2022/04/29 14:54:03;;;;;;;4.97;1.70;;;;;;;;;;4995957;28;20491;-79
2022/04/29 14:56:29;;;;;;;5.20;1.92;;;;;;;;;;4978742;28;20376;-79
2022/04/29 14:58:55;;;;;;;3.00;1.50;;;;;;;;;;4995939;28;20042;-79
2022/04/29 15:01:22;;;;;;;12.32;1.67;;;;;;;;;;4995728;28;20026;-81
2022/04/29 15:03:48;;;;;;;4.80;1.67;;;;;;;;;;4995859;28;20121;-79
2022/04/29 15:06:14;;;;;;;4.20;1.70;;;;;;;;;;4996071;28;20037;-79
2022/04/29 15:08:41;;;;;;;4.78;1.85;;;;;;;;;;4978429;28;20499;-79
2022/04/29 15:16:18;;;;;;;5.32;1.92;;;;;;;;;;4980129;28;20070;-80
2022/04/29 15:18:45;;;;;;;3.55;1.90;;;;;;;;;;4961783;28;20049;-86
2022/04/29 15:21:11;;;;;;;3.83;1.90;;;;;;;;;;4975963;28;20173;-77
2022/04/29 15:23:37;;;;;;;3.53;1.77;;;;;;;;;;4975458;28;20398;-81
2022/04/29 15:26:03;;;;;;;3.17;1.70;;;;;;;;;;4977688;28;20030;-76
2022/04/29 15:28:30;;;;;;;4.90;1.75;;;;;;;;;;4994779;28;20077;-76
2022/04/29 15:30:56;;;;;;;5.20;1.80;;;;;;;;;;4988621;28;20026;-75
2022/04/29 15:33:25;;;;;;;4.88;1.52;;;;;;;;;;4978042;28;20398;-76
2022/04/29 15:35:52;;;;;;;4.78;1.92;;;;;;;;;;4977596;28;20050;-75